Sea Vulture — WDF2201 — position and weather

sailwx.info

Track history (hours):
 
Tides and Currents Weather Stations Pressure Air Temp Water Temp Dewpoint Dewpoint Depression Visibility Wind Speed Wind Dir Waves Ship Positions

Sea Vulture

Owner: Hickey Marine Enterprises, Inc., Vancouver, WA. More information available from US FCC via Universal Licensing System.

Last reported at 2017-Nov-22 22:48 UTC. Time now 2017-Nov-25 11:31 UTC.
Position N 45°38' W 122°42'.

Length 40 m.

Type: Pilot. MMSI: 367425960.

Date/timePositionNaut miles runAvg speedWind from/ knotsBaromVisibWave heightAir tempDewpointWater temp
2017-Nov-22 22:48N 45°38' W 122°42'0 0.0
2017-Nov-22 22:30N 45°38' W 122°42'0 0.1
2017-Nov-22 22:00N 45°38' W 122°42'0 0.0
2017-Nov-22 21:31N 45°38' W 122°42'0 0.0
2017-Nov-22 21:00N 45°38' W 122°42'0 0.0
2017-Nov-22 20:30N 45°38' W 122°42'0 0.0
2017-Nov-22 20:01N 45°38' W 122°42'0 0.0
2017-Nov-22 19:30N 45°38' W 122°42'  
2017-Nov-19 19:42N 45°39' W 122°45'0 0.1
2017-Nov-19 19:30N 45°39' W 122°45'0 0.0
2017-Nov-19 19:00N 45°39' W 122°45'0 0.0
2017-Nov-19 18:31N 45°39' W 122°45'0 0.0
2017-Nov-19 18:01N 45°39' W 122°45'0 0.0
2017-Nov-19 17:30N 45°39' W 122°45'0 0.0
2017-Nov-19 17:01N 45°39' W 122°45'0 0.0
2017-Nov-19 16:25N 45°39' W 122°45'0 0.0
2017-Nov-19 16:01N 45°39' W 122°45'0 0.0
2017-Nov-18 20:54N 45°39' W 122°45'0 0.3
2017-Nov-18 20:30N 45°39' W 122°45'1 2.3
2017-Nov-18 20:00N 45°38' W 122°43'0 0.0
2017-Nov-18 19:30N 45°38' W 122°43'0 0.1
2017-Nov-18 19:00N 45°38' W 122°43'0 0.0
2017-Nov-18 18:30N 45°38' W 122°43'0 0.1
2017-Nov-18 18:00N 45°38' W 122°43'0 0.0
2017-Nov-18 17:30N 45°38' W 122°43'0 0.4
2017-Nov-18 17:00N 45°38' W 122°44'0 0.3
2017-Nov-18 16:30N 45°38' W 122°44'1 1.9
2017-Nov-18 16:00N 45°39' W 122°45'0 0.1
2017-Nov-18 15:31N 45°39' W 122°45'0 0.0
2017-Nov-18 15:00N 45°39' W 122°45'0 0.0
2017-Nov-18 14:30N 45°39' W 122°45'0 0.0
2017-Nov-18 14:00N 45°39' W 122°45'0 0.0
2017-Nov-18 13:30N 45°39' W 122°45'0 0.0
2017-Nov-18 04:00N 45°39' W 122°45'0 0.0
2017-Nov-18 03:30N 45°39' W 122°45'2 3.3
2017-Nov-18 03:00N 45°38' W 122°43'3 6.3
2017-Nov-18 02:31N 45°37' W 122°39'1 1.5
2017-Nov-18 02:00N 45°37' W 122°38'1 2.9
2017-Nov-18 01:30N 45°36' W 122°36'2 4.7
2017-Nov-18 01:00N 45°36' W 122°33'2 4.6
2017-Nov-18 00:30N 45°35' W 122°29'2 4.8
2017-Nov-18 00:00N 45°34' W 122°26'1 2.5
2017-Nov-17 23:30N 45°34' W 122°25'0 0.0
2017-Nov-17 23:00N 45°34' W 122°25'0 0.0
2017-Nov-17 22:30N 45°34' W 122°25'0 0.0
2017-Nov-17 22:00N 45°34' W 122°25'0 0.1
2017-Nov-17 21:30N 45°34' W 122°25'0 0.1
2017-Nov-17 21:00N 45°34' W 122°24'0 0.0
2017-Nov-17 20:30N 45°34' W 122°24'0 0.0
2017-Nov-17 20:00N 45°34' W 122°24'0 0.0
2017-Nov-17 19:30N 45°34' W 122°24'0 0.1
2017-Nov-17 19:00N 45°34' W 122°24'0 0.0
2017-Nov-17 18:30N 45°34' W 122°24'0 0.0
2017-Nov-17 18:00N 45°34' W 122°24'0 0.0
2017-Nov-17 17:30N 45°34' W 122°24'0 0.0
2017-Nov-17 17:00N 45°34' W 122°24'0 0.1
2017-Nov-17 16:30N 45°34' W 122°24'0 0.0
2017-Nov-17 15:59N 45°34' W 122°24'0 0.1
2017-Nov-17 15:31N 45°34' W 122°25'0 0.0
2017-Nov-17 14:55N 45°34' W 122°25'0 0.1
2017-Nov-17 14:26N 45°34' W 122°24'0 0.0
2017-Nov-17 14:00N 45°34' W 122°24'0 0.0
2017-Nov-17 13:30N 45°34' W 122°24'0 0.0
2017-Nov-17 13:00N 45°34' W 122°24'0 0.0
2017-Nov-17 12:30N 45°34' W 122°24'0 0.0
2017-Nov-17 12:00N 45°34' W 122°24'0 0.0
2017-Nov-17 11:30N 45°34' W 122°24'0 0.0
2017-Nov-17 11:01N 45°34' W 122°24'0 0.0
2017-Nov-17 10:30N 45°34' W 122°24'0 0.0
2017-Nov-17 10:00N 45°34' W 122°24'0 0.0
2017-Nov-17 09:30N 45°34' W 122°24'0 0.0
2017-Nov-17 09:00N 45°34' W 122°24'0 0.0
2017-Nov-17 08:30N 45°34' W 122°24'0 0.0
2017-Nov-17 08:01N 45°34' W 122°24'0 0.0
2017-Nov-17 07:31N 45°34' W 122°24'0 0.0
2017-Nov-17 07:00N 45°34' W 122°24'0 0.0
2017-Nov-17 06:30N 45°34' W 122°24'0 0.0
2017-Nov-17 06:00N 45°34' W 122°24'0 0.0
2017-Nov-17 05:31N 45°34' W 122°24'0 0.0
2017-Nov-17 05:00N 45°34' W 122°24'0 0.0
2017-Nov-17 04:30N 45°34' W 122°24'0 0.0
2017-Nov-17 04:00N 45°34' W 122°24'0 0.0
2017-Nov-17 03:28N 45°34' W 122°24'0 0.0
2017-Nov-17 03:00N 45°34' W 122°24'0 0.0
2017-Nov-17 02:30N 45°34' W 122°24'0 0.0
2017-Nov-17 02:00N 45°34' W 122°24'0 0.0
2017-Nov-17 01:30N 45°34' W 122°24'0 0.0
2017-Nov-17 01:00N 45°34' W 122°24'0 0.0
2017-Nov-17 00:30N 45°34' W 122°24'0 0.0
2017-Nov-17 00:01N 45°34' W 122°24'0 0.0
2017-Nov-16 23:30N 45°34' W 122°24'0 0.0
2017-Nov-16 23:00N 45°34' W 122°24'0 0.0
2017-Nov-16 22:30N 45°34' W 122°24'0 0.0
2017-Nov-16 22:01N 45°34' W 122°24'0 0.0
2017-Nov-16 21:30N 45°34' W 122°24'0 0.0
2017-Nov-16 21:00N 45°34' W 122°24'0 0.0
2017-Nov-16 20:29N 45°34' W 122°24'0 0.0
2017-Nov-16 19:58N 45°34' W 122°24'0 0.0
2017-Nov-16 19:30N 45°34' W 122°24'0 0.0
2017-Nov-16 19:00N 45°34' W 122°24'0 0.0
2017-Nov-16 18:30N 45°34' W 122°24'0 0.0
2017-Nov-16 18:00N 45°34' W 122°24'0 0.0
2017-Nov-16 17:30N 45°34' W 122°24'0 0.0
2017-Nov-16 17:00N 45°34' W 122°24'0 0.0
2017-Nov-16 16:30N 45°34' W 122°24'0 0.0
2017-Nov-16 15:59N 45°34' W 122°24'0 0.0
2017-Nov-16 15:30N 45°34' W 122°24'0 0.0
2017-Nov-16 14:58N 45°34' W 122°24'0 0.0
2017-Nov-16 14:30N 45°34' W 122°24'0 0.0
2017-Nov-16 14:00N 45°34' W 122°24'0 0.0
2017-Nov-16 13:30N 45°34' W 122°24'0 0.0
2017-Nov-16 01:36N 45°34' W 122°24'0 0.1
2017-Nov-16 01:30N 45°34' W 122°24'0 0.0
2017-Nov-16 01:00N 45°34' W 122°24'0 0.0
2017-Nov-16 00:30N 45°34' W 122°24'0 0.0
2017-Nov-16 00:00N 45°34' W 122°24'0 0.0
2017-Nov-15 23:30N 45°34' W 122°24'0 0.0
2017-Nov-15 23:00N 45°34' W 122°24'0 0.0
2017-Nov-15 22:30N 45°34' W 122°24'0 0.0
2017-Nov-15 22:00N 45°34' W 122°24'0 0.0
2017-Nov-15 21:30N 45°34' W 122°24'0 0.0
2017-Nov-15 21:00N 45°34' W 122°24'0 0.0
2017-Nov-15 20:30N 45°34' W 122°24'0 0.0
2017-Nov-15 20:00N 45°34' W 122°24'0 0.0
2017-Nov-15 19:30N 45°34' W 122°24'0 0.0
2017-Nov-15 19:00N 45°34' W 122°24'0 0.0
2017-Nov-15 18:30N 45°34' W 122°24'0 0.0
2017-Nov-15 18:00N 45°34' W 122°24'0 0.0
2017-Nov-15 17:30N 45°34' W 122°24'0 0.0
2017-Nov-15 16:58N 45°34' W 122°24'0 0.0
2017-Nov-15 16:30N 45°34' W 122°24'0 0.0
2017-Nov-15 16:00N 45°34' W 122°24'0 0.0
2017-Nov-15 15:30N 45°34' W 122°24'0 0.0
2017-Nov-15 15:00N 45°34' W 122°24'0 0.0
2017-Nov-15 14:30N 45°34' W 122°24'0 0.0
2017-Nov-15 01:36N 45°34' W 122°24'0 0.0
2017-Nov-15 01:30N 45°34' W 122°24'0 0.1
2017-Nov-15 00:53N 45°34' W 122°25'0 0.1
2017-Nov-15 00:28N 45°34' W 122°24'0 0.0
2017-Nov-15 00:00N 45°34' W 122°24'0 0.1
2017-Nov-14 23:30N 45°34' W 122°25'0 0.0
2017-Nov-14 23:00N 45°34' W 122°25'0 0.0
2017-Nov-14 22:30N 45°34' W 122°25'0 0.0
2017-Nov-14 22:00N 45°34' W 122°25'0 0.0
2017-Nov-14 21:30N 45°34' W 122°25'0 0.0
2017-Nov-14 21:00N 45°34' W 122°25'0 0.0
2017-Nov-14 20:30N 45°34' W 122°25'0 0.0
2017-Nov-14 20:00N 45°34' W 122°25'0 0.1
2017-Nov-14 19:30N 45°34' W 122°25'15 0.7
2017-Nov-13 21:57N 45°39' W 122°45'0 0.0
2017-Nov-13 02:00N 45°39' W 122°45'0 0.1
2017-Nov-13 01:31N 45°39' W 122°45'0 0.1
2017-Nov-13 01:00N 45°39' W 122°45'0 0.1
2017-Nov-13 00:30N 45°39' W 122°45'0 0.0
2017-Nov-13 00:01N 45°39' W 122°45'0 0.0
2017-Nov-12 23:31N 45°39' W 122°45'0 0.0
2017-Nov-12 23:01N 45°39' W 122°45'  
Track history (hours):
 
Tides and Currents Weather Stations Pressure Air Temp Water Temp Dewpoint Dewpoint Depression Visibility Wind Speed Wind Dir Waves Ship Positions

Sea Vulture

Owner: Hickey Marine Enterprises, Inc., Vancouver, WA. More information available from US FCC via Universal Licensing System.

Last reported at 2017-Nov-22 22:48 UTC. Time now 2017-Nov-25 11:31 UTC.
Position N 45°38' W 122°42'.

Length 40 m.

Type: Pilot. MMSI: 367425960.

Date/timePositionNaut miles runAvg speedWind from/ knotsBaromVisibWave heightAir tempDewpointWater temp
2017-Nov-22 22:48N 45°38' W 122°42'0 0.0
2017-Nov-22 22:30N 45°38' W 122°42'0 0.1
2017-Nov-22 22:00N 45°38' W 122°42'0 0.0
2017-Nov-22 21:31N 45°38' W 122°42'0 0.0
2017-Nov-22 21:00N 45°38' W 122°42'0 0.0
2017-Nov-22 20:30N 45°38' W 122°42'0 0.0
2017-Nov-22 20:01N 45°38' W 122°42'0 0.0
2017-Nov-22 19:30N 45°38' W 122°42'  
2017-Nov-19 19:42N 45°39' W 122°45'0 0.1
2017-Nov-19 19:30N 45°39' W 122°45'0 0.0
2017-Nov-19 19:00N 45°39' W 122°45'0 0.0
2017-Nov-19 18:31N 45°39' W 122°45'0 0.0
2017-Nov-19 18:01N 45°39' W 122°45'0 0.0
2017-Nov-19 17:30N 45°39' W 122°45'0 0.0
2017-Nov-19 17:01N 45°39' W 122°45'0 0.0
2017-Nov-19 16:25N 45°39' W 122°45'0 0.0
2017-Nov-19 16:01N 45°39' W 122°45'0 0.0
2017-Nov-18 20:54N 45°39' W 122°45'0 0.3
2017-Nov-18 20:30N 45°39' W 122°45'1 2.3
2017-Nov-18 20:00N 45°38' W 122°43'0 0.0
2017-Nov-18 19:30N 45°38' W 122°43'0 0.1
2017-Nov-18 19:00N 45°38' W 122°43'0 0.0
2017-Nov-18 18:30N 45°38' W 122°43'0 0.1
2017-Nov-18 18:00N 45°38' W 122°43'0 0.0
2017-Nov-18 17:30N 45°38' W 122°43'0 0.4
2017-Nov-18 17:00N 45°38' W 122°44'0 0.3
2017-Nov-18 16:30N 45°38' W 122°44'1 1.9
2017-Nov-18 16:00N 45°39' W 122°45'0 0.1
2017-Nov-18 15:31N 45°39' W 122°45'0 0.0
2017-Nov-18 15:00N 45°39' W 122°45'0 0.0
2017-Nov-18 14:30N 45°39' W 122°45'0 0.0
2017-Nov-18 14:00N 45°39' W 122°45'0 0.0
2017-Nov-18 13:30N 45°39' W 122°45'0 0.0
2017-Nov-18 04:00N 45°39' W 122°45'0 0.0
2017-Nov-18 03:30N 45°39' W 122°45'2 3.3
2017-Nov-18 03:00N 45°38' W 122°43'3 6.3
2017-Nov-18 02:31N 45°37' W 122°39'1 1.5
2017-Nov-18 02:00N 45°37' W 122°38'1 2.9
2017-Nov-18 01:30N 45°36' W 122°36'2 4.7
2017-Nov-18 01:00N 45°36' W 122°33'2 4.6
2017-Nov-18 00:30N 45°35' W 122°29'2 4.8
2017-Nov-18 00:00N 45°34' W 122°26'1 2.5
2017-Nov-17 23:30N 45°34' W 122°25'0 0.0
2017-Nov-17 23:00N 45°34' W 122°25'0 0.0
2017-Nov-17 22:30N 45°34' W 122°25'0 0.0
2017-Nov-17 22:00N 45°34' W 122°25'0 0.1
2017-Nov-17 21:30N 45°34' W 122°25'0 0.1
2017-Nov-17 21:00N 45°34' W 122°24'0 0.0
2017-Nov-17 20:30N 45°34' W 122°24'0 0.0
2017-Nov-17 20:00N 45°34' W 122°24'0 0.0
2017-Nov-17 19:30N 45°34' W 122°24'0 0.1
2017-Nov-17 19:00N 45°34' W 122°24'0 0.0
2017-Nov-17 18:30N 45°34' W 122°24'0 0.0
2017-Nov-17 18:00N 45°34' W 122°24'0 0.0
2017-Nov-17 17:30N 45°34' W 122°24'0 0.0
2017-Nov-17 17:00N 45°34' W 122°24'0 0.1
2017-Nov-17 16:30N 45°34' W 122°24'0 0.0
2017-Nov-17 15:59N 45°34' W 122°24'0 0.1
2017-Nov-17 15:31N 45°34' W 122°25'0 0.0
2017-Nov-17 14:55N 45°34' W 122°25'0 0.1
2017-Nov-17 14:26N 45°34' W 122°24'0 0.0
2017-Nov-17 14:00N 45°34' W 122°24'0 0.0
2017-Nov-17 13:30N 45°34' W 122°24'0 0.0
2017-Nov-17 13:00N 45°34' W 122°24'0 0.0
2017-Nov-17 12:30N 45°34' W 122°24'0 0.0
2017-Nov-17 12:00N 45°34' W 122°24'0 0.0
2017-Nov-17 11:30N 45°34' W 122°24'0 0.0
2017-Nov-17 11:01N 45°34' W 122°24'0 0.0
2017-Nov-17 10:30N 45°34' W 122°24'0 0.0
2017-Nov-17 10:00N 45°34' W 122°24'0 0.0
2017-Nov-17 09:30N 45°34' W 122°24'0 0.0
2017-Nov-17 09:00N 45°34' W 122°24'0 0.0
2017-Nov-17 08:30N 45°34' W 122°24'0 0.0
2017-Nov-17 08:01N 45°34' W 122°24'0 0.0
2017-Nov-17 07:31N 45°34' W 122°24'0 0.0
2017-Nov-17 07:00N 45°34' W 122°24'0 0.0
2017-Nov-17 06:30N 45°34' W 122°24'0 0.0
2017-Nov-17 06:00N 45°34' W 122°24'0 0.0
2017-Nov-17 05:31N 45°34' W 122°24'0 0.0
2017-Nov-17 05:00N 45°34' W 122°24'0 0.0
2017-Nov-17 04:30N 45°34' W 122°24'0 0.0
2017-Nov-17 04:00N 45°34' W 122°24'0 0.0
2017-Nov-17 03:28N 45°34' W 122°24'0 0.0
2017-Nov-17 03:00N 45°34' W 122°24'0 0.0
2017-Nov-17 02:30N 45°34' W 122°24'0 0.0
2017-Nov-17 02:00N 45°34' W 122°24'0 0.0
2017-Nov-17 01:30N 45°34' W 122°24'0 0.0
2017-Nov-17 01:00N 45°34' W 122°24'0 0.0
2017-Nov-17 00:30N 45°34' W 122°24'0 0.0
2017-Nov-17 00:01N 45°34' W 122°24'0 0.0
2017-Nov-16 23:30N 45°34' W 122°24'0 0.0
2017-Nov-16 23:00N 45°34' W 122°24'0 0.0
2017-Nov-16 22:30N 45°34' W 122°24'0 0.0
2017-Nov-16 22:01N 45°34' W 122°24'0 0.0
2017-Nov-16 21:30N 45°34' W 122°24'0 0.0
2017-Nov-16 21:00N 45°34' W 122°24'0 0.0
2017-Nov-16 20:29N 45°34' W 122°24'0 0.0
2017-Nov-16 19:58N 45°34' W 122°24'0 0.0
2017-Nov-16 19:30N 45°34' W 122°24'0 0.0
2017-Nov-16 19:00N 45°34' W 122°24'0 0.0
2017-Nov-16 18:30N 45°34' W 122°24'0 0.0
2017-Nov-16 18:00N 45°34' W 122°24'0 0.0
2017-Nov-16 17:30N 45°34' W 122°24'0 0.0
2017-Nov-16 17:00N 45°34' W 122°24'0 0.0
2017-Nov-16 16:30N 45°34' W 122°24'0 0.0
2017-Nov-16 15:59N 45°34' W 122°24'0 0.0
2017-Nov-16 15:30N 45°34' W 122°24'0 0.0
2017-Nov-16 14:58N 45°34' W 122°24'0 0.0
2017-Nov-16 14:30N 45°34' W 122°24'0 0.0
2017-Nov-16 14:00N 45°34' W 122°24'0 0.0
2017-Nov-16 13:30N 45°34' W 122°24'0 0.0
2017-Nov-16 01:36N 45°34' W 122°24'0 0.1
2017-Nov-16 01:30N 45°34' W 122°24'0 0.0
2017-Nov-16 01:00N 45°34' W 122°24'0 0.0
2017-Nov-16 00:30N 45°34' W 122°24'0 0.0
2017-Nov-16 00:00N 45°34' W 122°24'0 0.0
2017-Nov-15 23:30N 45°34' W 122°24'0 0.0
2017-Nov-15 23:00N 45°34' W 122°24'0 0.0
2017-Nov-15 22:30N 45°34' W 122°24'0 0.0
2017-Nov-15 22:00N 45°34' W 122°24'0 0.0
2017-Nov-15 21:30N 45°34' W 122°24'0 0.0
2017-Nov-15 21:00N 45°34' W 122°24'0 0.0
2017-Nov-15 20:30N 45°34' W 122°24'0 0.0
2017-Nov-15 20:00N 45°34' W 122°24'0 0.0
2017-Nov-15 19:30N 45°34' W 122°24'0 0.0
2017-Nov-15 19:00N 45°34' W 122°24'0 0.0
2017-Nov-15 18:30N 45°34' W 122°24'0 0.0
2017-Nov-15 18:00N 45°34' W 122°24'0 0.0
2017-Nov-15 17:30N 45°34' W 122°24'0 0.0
2017-Nov-15 16:58N 45°34' W 122°24'0 0.0
2017-Nov-15 16:30N 45°34' W 122°24'0 0.0
2017-Nov-15 16:00N 45°34' W 122°24'0 0.0
2017-Nov-15 15:30N 45°34' W 122°24'0 0.0
2017-Nov-15 15:00N 45°34' W 122°24'0 0.0
2017-Nov-15 14:30N 45°34' W 122°24'0 0.0
2017-Nov-15 01:36N 45°34' W 122°24'0 0.0
2017-Nov-15 01:30N 45°34' W 122°24'0 0.1
2017-Nov-15 00:53N 45°34' W 122°25'0 0.1
2017-Nov-15 00:28N 45°34' W 122°24'0 0.0
2017-Nov-15 00:00N 45°34' W 122°24'0 0.1
2017-Nov-14 23:30N 45°34' W 122°25'0 0.0
2017-Nov-14 23:00N 45°34' W 122°25'0 0.0
2017-Nov-14 22:30N 45°34' W 122°25'0 0.0
2017-Nov-14 22:00N 45°34' W 122°25'0 0.0
2017-Nov-14 21:30N 45°34' W 122°25'0 0.0
2017-Nov-14 21:00N 45°34' W 122°25'0 0.0
2017-Nov-14 20:30N 45°34' W 122°25'0 0.0
2017-Nov-14 20:00N 45°34' W 122°25'0 0.1
2017-Nov-14 19:30N 45°34' W 122°25'15 0.7
2017-Nov-13 21:57N 45°39' W 122°45'0 0.0
2017-Nov-13 02:00N 45°39' W 122°45'0 0.1
2017-Nov-13 01:31N 45°39' W 122°45'0 0.1
2017-Nov-13 01:00N 45°39' W 122°45'0 0.1
2017-Nov-13 00:30N 45°39' W 122°45'0 0.0
2017-Nov-13 00:01N 45°39' W 122°45'0 0.0
2017-Nov-12 23:31N 45°39' W 122°45'0 0.0
2017-Nov-12 23:01N 45°39' W 122°45'  

Dump ship's entire track history